createdAt,value
2019-03-12T00:00:46.370Z,11.67
2019-03-12T00:03:21.986Z,11.57
2019-03-12T00:05:55.861Z,13.40
2019-03-12T00:08:29.767Z,12.40
2019-03-12T00:11:05.459Z,19.13
2019-03-12T00:13:41.176Z,22.30
2019-03-12T00:16:15.059Z,12.00
2019-03-12T00:18:48.909Z,17.53
2019-03-12T00:21:22.987Z,12.73
2019-03-12T00:23:58.569Z,10.70
2019-03-12T00:26:32.442Z,15.33
2019-03-12T00:29:07.750Z,22.90
2019-03-12T00:31:41.762Z,19.17
2019-03-12T00:34:15.879Z,13.43
2019-03-12T00:36:49.936Z,13.97
2019-03-12T00:39:23.753Z,10.40
2019-03-12T00:41:58.833Z,27.37
2019-03-12T00:44:34.471Z,16.60
2019-03-12T00:47:08.100Z,19.57
2019-03-12T00:49:41.829Z,9.77
2019-03-12T00:52:15.489Z,27.53
2019-03-12T00:54:50.942Z,22.43
2019-03-12T00:57:24.664Z,28.57
2019-03-12T00:59:58.436Z,21.20
2019-03-12T01:02:32.369Z,16.57
2019-03-12T01:05:06.416Z,18.30
2019-03-12T01:07:41.307Z,19.43
2019-03-12T01:10:15.994Z,15.43
2019-03-12T01:12:49.865Z,17.30
2019-03-12T01:15:23.693Z,14.70
2019-03-12T01:17:58.791Z,17.77
2019-03-12T01:20:32.813Z,14.23
2019-03-12T01:23:06.547Z,16.67
2019-03-12T01:25:40.923Z,14.47
2019-03-12T01:28:15.249Z,10.83
2019-03-12T01:30:52.327Z,15.27
2019-03-12T01:33:30.020Z,17.80
2019-03-12T01:36:04.405Z,13.00
2019-03-12T01:38:38.155Z,19.03
2019-03-12T01:41:11.845Z,15.00
2019-03-12T01:43:46.115Z,14.00
2019-03-12T01:46:21.204Z,13.53
2019-03-12T01:48:56.756Z,17.57
2019-03-12T01:51:31.274Z,22.03
2019-03-12T01:54:07.224Z,16.67
2019-03-12T01:56:42.024Z,22.40
2019-03-12T01:59:15.944Z,22.50
2019-03-12T02:01:51.238Z,14.33
2019-03-12T02:04:25.025Z,16.17
2019-03-12T02:06:58.851Z,29.13
2019-03-12T02:09:32.892Z,12.73
2019-03-12T02:12:07.072Z,16.53
2019-03-12T02:14:41.899Z,18.47
2019-03-12T02:17:15.916Z,16.80
2019-03-12T02:19:50.678Z,14.60
2019-03-12T02:22:24.440Z,25.23
2019-03-12T02:24:59.292Z,16.03
2019-03-12T02:27:33.093Z,20.20
2019-03-12T02:30:09.481Z,10.20
2019-03-12T02:32:45.068Z,23.00
2019-03-12T02:35:20.170Z,15.00
2019-03-12T02:37:56.811Z,20.10
2019-03-12T02:40:31.659Z,11.70
2019-03-12T02:43:05.455Z,26.13
2019-03-12T02:45:39.379Z,19.70
2019-03-12T02:48:13.302Z,16.73
2019-03-12T02:50:47.405Z,27.00
2019-03-12T02:53:21.177Z,19.03
2019-03-12T02:55:54.939Z,22.57
2019-03-12T02:58:28.712Z,14.33
2019-03-12T03:01:02.635Z,16.87
2019-03-12T03:03:37.130Z,25.30
2019-03-12T03:06:35.712Z,17.10
2019-03-12T03:09:09.852Z,16.17
2019-03-12T03:11:44.478Z,15.80
2019-03-12T03:14:41.204Z,22.87
2019-03-12T03:17:18.170Z,33.03
2019-03-12T03:19:52.367Z,19.30
2019-03-12T03:22:26.026Z,20.67
2019-03-12T03:24:59.767Z,23.03
2019-03-12T03:27:33.442Z,17.93
2019-03-12T03:30:11.000Z,17.00
2019-03-12T03:32:47.356Z,20.03
2019-03-12T03:35:23.356Z,23.53
2019-03-12T03:37:57.165Z,19.40
2019-03-12T03:40:32.266Z,18.87
2019-03-12T03:43:06.050Z,27.10
2019-03-12T03:45:39.877Z,19.17
2019-03-12T03:48:13.582Z,20.70
2019-03-12T03:50:47.286Z,20.30
2019-03-12T03:53:20.977Z,14.50
2019-03-12T03:55:55.163Z,21.23
2019-03-12T03:58:30.179Z,16.87
2019-03-12T04:01:04.186Z,18.40
2019-03-12T04:03:37.966Z,21.93
2019-03-12T04:06:11.972Z,22.53
2019-03-12T04:08:46.931Z,21.60
2019-03-12T04:11:22.612Z,18.23
2019-03-12T04:13:57.492Z,20.73
2019-03-12T04:16:31.389Z,18.73
2019-03-12T04:19:06.553Z,16.80
2019-03-12T04:21:40.343Z,17.90
2019-03-12T04:24:14.012Z,24.50
2019-03-12T04:26:51.889Z,21.03
2019-03-12T04:29:25.647Z,24.70
2019-03-12T04:31:59.341Z,23.13
2019-03-12T04:34:40.630Z,40.27
2019-03-12T04:37:14.540Z,39.17
2019-03-12T04:39:50.233Z,55.00
2019-03-12T04:42:26.571Z,59.40
2019-03-12T04:45:00.430Z,45.57
2019-03-12T04:47:34.308Z,38.27
2019-03-12T04:50:09.877Z,34.90
2019-03-12T04:52:43.848Z,20.57
2019-03-12T04:55:18.676Z,20.20
2019-03-12T04:57:53.513Z,22.77
2019-03-12T05:00:27.443Z,17.10
2019-03-12T05:03:01.411Z,11.60
2019-03-12T05:05:35.341Z,20.27
2019-03-12T05:08:09.141Z,14.53
2019-03-12T05:10:42.962Z,15.50
2019-03-12T05:13:17.759Z,17.23
2019-03-12T05:15:51.494Z,11.90
2019-03-12T05:18:25.507Z,18.93
2019-03-12T05:20:59.606Z,17.90
2019-03-12T05:23:34.475Z,15.60
2019-03-12T05:26:08.369Z,20.00
2019-03-12T05:28:43.718Z,19.33
2019-03-12T05:31:17.608Z,14.67
2019-03-12T05:33:51.282Z,18.60
2019-03-12T05:36:25.769Z,20.10
2019-03-12T05:38:59.498Z,14.00
2019-03-12T05:41:33.225Z,10.00
2019-03-12T05:44:07.719Z,26.07
2019-03-12T05:46:41.804Z,10.27
2019-03-12T05:49:17.451Z,19.40
2019-03-12T05:51:52.990Z,22.50
2019-03-12T05:54:26.699Z,29.67
2019-03-12T05:57:00.312Z,16.23
2019-03-12T05:59:33.877Z,21.57
2019-03-12T06:02:07.583Z,15.00
2019-03-12T06:04:41.158Z,18.50
2019-03-12T06:07:15.311Z,21.97
2019-03-12T06:09:48.979Z,13.80
2019-03-12T06:12:23.824Z,14.80
2019-03-12T06:14:57.712Z,23.17
2019-03-12T06:17:31.572Z,15.13
2019-03-12T06:20:05.955Z,16.77
2019-03-12T06:22:41.772Z,10.97
2019-03-12T06:25:16.084Z,7.03
2019-03-12T06:27:49.871Z,18.80
2019-03-12T06:30:25.826Z,15.57
2019-03-12T06:33:05.902Z,15.23
2019-03-12T06:35:59.095Z,16.60
2019-03-12T06:38:45.127Z,15.07
2019-03-12T06:41:27.232Z,15.10
2019-03-12T06:44:13.518Z,16.83
2019-03-12T06:47:02.984Z,17.40
2019-03-12T06:49:54.082Z,14.53
2019-03-12T06:52:55.934Z,16.10
2019-03-12T06:55:54.811Z,21.53
2019-03-12T06:58:52.258Z,16.80
2019-03-12T07:01:48.894Z,21.77
2019-03-12T07:04:39.279Z,25.60
2019-03-12T07:07:41.599Z,18.20
2019-03-12T07:10:23.118Z,20.07
2019-03-12T07:13:21.652Z,21.03
2019-03-12T07:16:19.952Z,22.50
2019-03-12T07:19:02.153Z,36.90
2019-03-12T07:22:01.341Z,31.43
2019-03-12T07:24:46.923Z,23.03
2019-03-12T07:27:34.947Z,22.33
2019-03-12T07:30:31.676Z,23.27
2019-03-12T07:33:13.382Z,17.40
2019-03-12T07:36:04.094Z,20.20
2019-03-12T07:38:53.830Z,24.13
2019-03-12T07:41:46.469Z,13.77
2019-03-12T07:44:39.109Z,13.33
2019-03-12T07:47:42.185Z,14.10
2019-03-12T07:50:42.390Z,20.97
2019-03-12T07:53:58.852Z,13.30
2019-03-12T07:56:31.860Z,16.47
2019-03-12T07:59:37.597Z,12.50
2019-03-12T08:02:19.798Z,22.70
2019-03-12T08:05:02.916Z,15.77
2019-03-12T08:07:53.926Z,14.23
2019-03-12T08:10:47.169Z,14.23
2019-03-12T08:13:41.645Z,13.13
2019-03-12T08:16:37.048Z,16.30
2019-03-12T08:19:29.276Z,14.27
2019-03-12T08:22:28.400Z,12.50
2019-03-12T08:25:10.274Z,19.63
2019-03-12T08:28:08.928Z,13.03
2019-03-12T08:30:55.730Z,21.23
2019-03-12T08:33:50.857Z,21.90
2019-03-12T08:36:50.625Z,12.73
2019-03-12T08:39:46.029Z,17.13
2019-03-12T08:42:54.939Z,13.00
2019-03-12T08:45:48.896Z,13.63
2019-03-12T08:48:32.940Z,18.27
2019-03-12T08:51:19.546Z,14.93
2019-03-12T08:54:29.168Z,10.70
2019-03-12T08:57:17.156Z,13.53
2019-03-12T09:00:10.332Z,21.27
2019-03-12T09:02:54.593Z,5.13
2019-03-12T09:06:01.044Z,14.67
2019-03-12T09:09:00.044Z,9.70
2019-03-12T09:12:02.392Z,9.17
2019-03-12T09:14:59.705Z,16.47
2019-03-12T09:17:46.026Z,11.33
2019-03-12T09:20:28.839Z,9.60
2019-03-12T09:23:17.995Z,12.57
2019-03-12T09:26:00.171Z,10.77
2019-03-12T09:28:45.564Z,10.90
2019-03-12T09:31:36.668Z,8.30
2019-03-12T09:34:34.933Z,8.60
2019-03-12T09:37:42.618Z,10.93
2019-03-12T09:40:34.467Z,14.20
2019-03-12T09:43:26.356Z,11.10
2019-03-12T09:46:33.932Z,7.30
2019-03-12T09:49:19.407Z,16.00
2019-03-12T09:52:01.506Z,5.87
2019-03-12T09:54:55.683Z,5.90
2019-03-12T09:57:54.684Z,11.10
2019-03-12T10:00:45.964Z,8.57
2019-03-12T10:03:35.435Z,12.63
2019-03-12T10:06:30.828Z,11.70
2019-03-12T10:09:30.636Z,14.33
2019-03-12T10:12:26.642Z,9.37
2019-03-12T10:15:32.071Z,9.30
2019-03-12T10:18:25.835Z,7.30
2019-03-12T10:21:19.806Z,10.33
2019-03-12T10:24:00.062Z,12.23
2019-03-12T10:26:52.004Z,10.07
2019-03-12T10:29:37.047Z,12.10
2019-03-12T10:32:24.770Z,10.87
2019-03-12T10:35:29.493Z,17.63
2019-03-12T10:39:07.889Z,15.50
2019-03-12T10:42:06.948Z,12.33
2019-03-12T10:44:53.144Z,13.07
2019-03-12T10:47:29.642Z,14.00
2019-03-12T10:50:04.747Z,13.47
2019-03-12T10:52:38.554Z,10.73
2019-03-12T10:55:18.436Z,16.47
2019-03-12T10:57:52.921Z,9.07
2019-03-12T11:00:27.657Z,12.80
2019-03-12T11:03:01.692Z,15.40
2019-03-12T11:05:45.256Z,10.43
2019-03-12T11:08:11.132Z,13.77
2019-03-12T11:10:45.044Z,7.50
2019-03-12T11:13:20.067Z,14.87
2019-03-12T11:15:56.023Z,9.37
2019-03-12T11:18:30.859Z,8.60
2019-03-12T11:21:04.489Z,12.93
2019-03-12T11:23:40.058Z,13.47
2019-03-12T11:26:13.857Z,10.87
2019-03-12T11:28:47.557Z,14.43
2019-03-12T11:31:21.286Z,17.73
2019-03-12T11:33:56.977Z,11.47
2019-03-12T11:36:31.476Z,11.47
2019-03-12T11:39:06.043Z,15.70
2019-03-12T11:41:42.038Z,19.40
2019-03-12T11:44:16.398Z,10.00
2019-03-12T11:46:50.195Z,9.40
2019-03-12T11:49:24.212Z,13.10
2019-03-12T11:51:59.334Z,11.00
2019-03-12T11:54:35.048Z,12.90
2019-03-12T11:57:08.936Z,12.77
2019-03-12T11:59:43.719Z,12.37
2019-03-12T12:02:17.397Z,26.80
2019-03-12T12:04:51.495Z,16.37
2019-03-12T12:07:25.463Z,9.97
2019-03-12T12:10:02.072Z,14.60
2019-03-12T12:12:36.397Z,7.83
2019-03-12T12:15:11.514Z,12.47
2019-03-12T12:17:49.501Z,9.70
2019-03-12T12:20:29.706Z,11.07
2019-03-12T12:22:59.802Z,16.80
2019-03-12T12:25:33.604Z,7.00
2019-03-12T12:28:07.460Z,12.43
2019-03-12T12:30:41.201Z,10.93
2019-03-12T12:33:16.153Z,12.30
2019-03-12T12:35:53.492Z,15.63
2019-03-12T12:38:27.181Z,8.33
2019-03-12T12:41:01.048Z,9.70
2019-03-12T12:43:34.751Z,6.23
2019-03-12T12:46:09.871Z,10.10
2019-03-12T12:48:43.880Z,8.23
2019-03-12T12:51:17.832Z,9.80
2019-03-12T12:53:51.808Z,10.60
2019-03-12T12:56:27.587Z,12.80
2019-03-12T12:59:01.531Z,12.73
2019-03-12T13:01:35.299Z,10.30
2019-03-12T13:04:10.135Z,11.27
2019-03-12T13:06:43.867Z,8.20
2019-03-12T13:09:18.674Z,6.37
2019-03-12T13:11:52.480Z,12.70
2019-03-12T13:14:26.516Z,13.20
2019-03-12T13:17:01.233Z,11.67
2019-03-12T13:19:34.885Z,15.70
2019-03-12T13:22:09.623Z,14.13
2019-03-12T13:24:44.506Z,18.27
2019-03-12T13:27:20.594Z,12.60
2019-03-12T13:29:54.583Z,18.37
2019-03-12T13:32:28.828Z,9.83
2019-03-12T13:35:02.624Z,16.53
2019-03-12T13:37:39.356Z,12.80
2019-03-12T13:40:17.245Z,9.17
2019-03-12T13:42:51.357Z,11.63
2019-03-12T13:45:26.849Z,6.57
2019-03-12T13:48:00.805Z,14.53
2019-03-12T13:50:34.843Z,7.87
2019-03-12T13:53:08.868Z,12.27
2019-03-12T13:55:43.688Z,13.23
2019-03-12T13:58:19.575Z,10.10
2019-03-12T14:00:53.517Z,12.00
2019-03-12T14:03:28.438Z,13.00
2019-03-12T14:06:02.093Z,11.07
2019-03-12T14:08:35.796Z,8.03
2019-03-12T14:11:09.834Z,8.20
2019-03-12T14:13:45.463Z,13.43
2019-03-12T14:16:19.309Z,11.03
2019-03-12T14:18:53.058Z,6.87
2019-03-12T14:21:26.807Z,12.57
2019-03-12T14:24:03.571Z,7.70
2019-03-12T14:26:39.229Z,10.53
2019-03-12T14:29:14.730Z,7.20
2019-03-12T14:31:48.707Z,5.60
2019-03-12T14:34:27.059Z,11.10
2019-03-12T14:37:00.998Z,10.87
2019-03-12T14:39:35.097Z,12.03
2019-03-12T14:42:09.937Z,5.07
2019-03-12T14:44:43.720Z,10.93
2019-03-12T14:47:17.681Z,8.33
2019-03-12T14:49:51.303Z,10.13
2019-03-12T14:52:30.688Z,7.07
2019-03-12T14:55:05.991Z,9.80
2019-03-12T14:57:40.967Z,9.83
2019-03-12T15:00:24.791Z,18.70
2019-03-12T15:02:59.838Z,10.63
2019-03-12T15:05:33.848Z,11.93
2019-03-12T15:08:12.305Z,5.50
2019-03-12T15:10:46.277Z,9.87
2019-03-12T15:13:23.037Z,6.47
2019-03-12T15:15:56.759Z,7.67
2019-03-12T15:18:30.505Z,6.07
2019-03-12T15:21:06.088Z,4.67
2019-03-12T15:23:40.258Z,11.63
2019-03-12T15:26:15.981Z,6.90
2019-03-12T15:28:49.760Z,5.77
2019-03-12T15:31:23.502Z,8.60
2019-03-12T15:33:57.573Z,5.40
2019-03-12T15:36:31.249Z,7.43
2019-03-12T15:39:06.835Z,5.43
2019-03-12T15:41:41.803Z,10.30
2019-03-12T15:44:15.533Z,6.63
2019-03-12T15:46:49.456Z,11.67
2019-03-12T15:49:23.319Z,8.03
2019-03-12T15:51:57.530Z,6.10
2019-03-12T15:54:31.346Z,23.53
2019-03-12T15:57:05.438Z,8.13
2019-03-12T15:59:39.322Z,23.20
2019-03-12T16:02:13.240Z,5.03
2019-03-12T16:04:50.615Z,9.97
2019-03-12T16:07:27.264Z,7.80
2019-03-12T16:10:03.714Z,8.90
2019-03-12T16:12:38.770Z,6.40
2019-03-12T16:15:12.963Z,9.23
2019-03-12T16:17:50.678Z,8.97
2019-03-12T16:20:24.706Z,14.93
2019-03-12T16:22:58.994Z,11.03
2019-03-12T16:25:35.032Z,19.50
2019-03-12T16:28:09.155Z,12.70
2019-03-12T16:30:43.420Z,9.73
2019-03-12T16:33:18.585Z,8.53
2019-03-12T16:35:52.367Z,8.37
2019-03-12T16:38:26.832Z,9.03
2019-03-12T16:41:02.198Z,17.30
2019-03-12T16:43:36.054Z,9.27
2019-03-12T16:46:09.759Z,9.23
2019-03-12T16:48:43.564Z,7.43
2019-03-12T16:51:17.367Z,8.00
2019-03-12T16:53:51.274Z,13.87
2019-03-12T16:56:26.713Z,11.30
2019-03-12T16:59:00.704Z,8.10
2019-03-12T17:01:35.935Z,10.53
2019-03-12T17:04:09.843Z,12.57
2019-03-12T17:06:46.008Z,6.90
2019-03-12T17:09:22.637Z,7.43
2019-03-12T17:11:56.338Z,10.27
2019-03-12T17:14:38.850Z,3.63
2019-03-12T17:17:10.967Z,9.73
2019-03-12T17:19:45.553Z,5.30
2019-03-12T17:22:20.631Z,10.17
2019-03-12T17:24:54.276Z,7.83
2019-03-12T17:27:29.782Z,7.60
2019-03-12T17:30:06.038Z,15.70
2019-03-12T17:32:39.829Z,9.93
2019-03-12T17:35:16.678Z,5.33
2019-03-12T17:37:50.682Z,8.37
2019-03-12T17:40:24.486Z,10.40
2019-03-12T17:42:58.358Z,13.70
2019-03-12T17:45:32.189Z,6.77
2019-03-12T17:48:07.034Z,9.33
2019-03-12T17:50:41.237Z,7.00
2019-03-12T17:53:16.678Z,4.57
2019-03-12T17:55:52.302Z,7.60
2019-03-12T17:58:27.339Z,7.43
2019-03-12T18:01:01.210Z,8.17
2019-03-12T18:03:38.538Z,9.83
2019-03-12T18:06:12.430Z,7.07
2019-03-12T18:08:47.547Z,8.07
2019-03-12T18:11:21.745Z,7.77
2019-03-12T18:13:57.350Z,4.27
2019-03-12T18:16:41.125Z,3.13
2019-03-12T18:19:09.256Z,6.30
2019-03-12T18:21:45.015Z,7.47
2019-03-12T18:24:19.099Z,6.90
2019-03-12T18:26:53.041Z,9.43
2019-03-12T18:29:29.513Z,4.93
2019-03-12T18:32:04.909Z,6.57
2019-03-12T18:34:39.657Z,6.53
2019-03-12T18:37:13.477Z,4.20
2019-03-12T18:39:48.602Z,5.47
2019-03-12T18:42:23.037Z,4.30
2019-03-12T18:44:58.423Z,3.27
2019-03-12T18:47:32.632Z,5.13
2019-03-12T18:50:07.705Z,6.70
2019-03-12T18:52:42.787Z,15.07
2019-03-12T18:55:49.037Z,5.23
2019-03-12T18:58:25.146Z,11.20
2019-03-12T19:01:02.015Z,5.57
2019-03-12T19:03:38.286Z,8.77
2019-03-12T19:06:14.597Z,8.90
2019-03-12T19:08:49.052Z,8.67
2019-03-12T19:11:23.070Z,3.30
2019-03-12T19:13:57.061Z,3.83
2019-03-12T19:16:30.837Z,6.73
2019-03-12T19:19:07.347Z,4.03
2019-03-12T19:21:50.173Z,5.27
2019-03-12T19:24:29.111Z,5.07
2019-03-12T19:27:05.008Z,7.30
2019-03-12T19:29:40.444Z,6.57
2019-03-12T19:32:27.330Z,8.30
2019-03-12T19:35:01.353Z,3.60
2019-03-12T19:37:35.475Z,7.70
2019-03-12T19:40:14.959Z,7.23
2019-03-12T19:42:49.869Z,4.73
2019-03-12T19:45:23.678Z,4.93
2019-03-12T19:47:57.996Z,5.03
2019-03-12T19:50:32.829Z,2.47
2019-03-12T19:53:07.492Z,8.50
2019-03-12T19:55:45.784Z,7.03
2019-03-12T19:58:21.110Z,5.53
2019-03-12T20:01:01.419Z,3.17
2019-03-12T20:03:36.935Z,7.17
2019-03-12T20:06:11.006Z,5.77
2019-03-12T20:08:45.952Z,5.63
2019-03-12T20:12:31.204Z,4.33
2019-03-12T20:16:16.749Z,4.90
2019-03-12T20:19:54.002Z,8.50
2019-03-12T20:23:21.946Z,3.40
2019-03-12T20:26:49.787Z,8.50
2019-03-12T20:30:22.033Z,4.13
2019-03-12T20:33:49.691Z,2.70
2019-03-12T20:37:40.778Z,11.57
2019-03-12T20:41:13.942Z,7.90
2019-03-12T20:44:57.908Z,6.03
2019-03-12T20:48:43.663Z,6.67
2019-03-12T20:52:22.331Z,3.63
2019-03-12T20:56:08.190Z,6.80
2019-03-12T20:59:36.337Z,4.50
2019-03-12T21:03:36.614Z,7.03
2019-03-12T21:07:02.566Z,13.30
2019-03-12T21:10:56.650Z,7.03
2019-03-12T21:14:21.226Z,11.23
2019-03-12T21:17:44.141Z,17.10
2019-03-12T21:21:12.397Z,10.17
2019-03-12T21:24:31.468Z,8.00
2019-03-12T21:27:52.290Z,7.07
2019-03-12T21:30:30.373Z,3.80
2019-03-12T21:33:14.747Z,6.40
2019-03-12T21:35:41.174Z,9.17
2019-03-12T21:38:20.028Z,5.20
2019-03-12T21:40:55.573Z,2.53
2019-03-12T21:43:29.992Z,1.53
2019-03-12T21:46:05.235Z,4.20
2019-03-12T21:48:39.247Z,7.40
2019-03-12T21:51:13.349Z,6.60
2019-03-12T21:53:48.573Z,5.80
2019-03-12T21:56:22.394Z,7.20
2019-03-12T21:58:56.581Z,5.97
2019-03-12T22:01:31.468Z,2.77
2019-03-12T22:04:05.201Z,9.60
2019-03-12T22:06:38.998Z,1.87
2019-03-12T22:09:13.029Z,6.97
2019-03-12T22:11:47.039Z,2.07
2019-03-12T22:14:20.806Z,2.00
2019-03-12T22:16:58.367Z,3.53
2019-03-12T22:19:33.815Z,5.40
2019-03-12T22:22:22.432Z,2.90
2019-03-12T22:24:56.191Z,5.70
2019-03-12T22:27:30.943Z,4.10
2019-03-12T22:30:05.536Z,7.50
2019-03-12T22:32:41.715Z,5.77
2019-03-12T22:35:15.788Z,3.30
2019-03-12T22:37:52.296Z,6.33
2019-03-12T22:40:26.000Z,2.20
2019-03-12T22:42:59.826Z,1.60
2019-03-12T22:45:34.872Z,2.67
2019-03-12T22:48:10.765Z,4.00
2019-03-12T22:50:46.250Z,3.07
2019-03-12T22:53:23.062Z,4.47
2019-03-12T22:55:57.015Z,2.40
2019-03-12T22:58:32.036Z,5.53
2019-03-12T23:01:06.173Z,6.43
2019-03-12T23:03:41.430Z,3.07
2019-03-12T23:06:15.134Z,3.50
2019-03-12T23:08:49.915Z,2.97
2019-03-12T23:11:25.714Z,3.30
2019-03-12T23:14:00.411Z,6.27
2019-03-12T23:16:35.892Z,4.93
2019-03-12T23:19:10.049Z,4.00
2019-03-12T23:21:45.955Z,5.90
2019-03-12T23:24:19.680Z,1.93
2019-03-12T23:26:55.205Z,4.50
2019-03-12T23:29:31.172Z,5.73
2019-03-12T23:32:05.962Z,3.90
2019-03-12T23:34:40.264Z,6.60
2019-03-12T23:37:13.926Z,3.97
2019-03-12T23:39:47.608Z,3.60
2019-03-12T23:42:21.583Z,3.47
2019-03-12T23:44:55.470Z,3.73
2019-03-12T23:47:31.952Z,2.03
2019-03-12T23:50:09.025Z,2.37
2019-03-12T23:52:42.712Z,3.40
2019-03-12T23:55:18.067Z,3.43
2019-03-12T23:57:51.694Z,5.77
